Time;durP1;ratioP1;P1;durP2;ratioP2;P2;SDS_P1;SDS_P2;PMS_P1;PMS_P2;Temp;Humidity;BMP_temperature;BMP_pressure;BME280_temperature;BME280_humidity;BME280_pressure;Samples;Min_cycle;Max_cycle;Signal;HPM_P1;HPM_P2
2023/12/04 00:01:26;;;;;;;18.03;8.50;;;-1.70;99.90;;;;;;9661872;23;20161;-89
2023/12/04 00:05:11;;;;;;;18.70;8.97;;;-1.70;99.90;;;;;;9662410;23;20179;-89
2023/12/04 00:08:57;;;;;;;17.27;8.43;;;-1.60;99.90;;;;;;9664975;23;20167;-89
2023/12/04 00:12:42;;;;;;;14.87;7.77;;;-1.70;99.90;;;;;;9664648;23;20164;-89
2023/12/04 00:16:28;;;;;;;16.43;8.23;;;-1.70;99.90;;;;;;9664362;23;20188;-89
2023/12/04 00:20:14;;;;;;;14.40;7.73;;;-1.70;99.90;;;;;;9664520;23;20172;-89
2023/12/04 00:23:59;;;;;;;13.67;7.70;;;-1.70;99.90;;;;;;9664316;23;20165;-89
2023/12/04 00:27:45;;;;;;;17.93;7.60;;;-1.80;99.90;;;;;;9663011;23;20184;-90
2023/12/04 00:31:31;;;;;;;15.70;7.27;;;-1.70;99.90;;;;;;9664182;23;20288;-89
2023/12/04 00:35:17;;;;;;;14.87;7.10;;;-1.70;99.90;;;;;;9663360;23;20698;-88
2023/12/04 00:39:03;;;;;;;16.47;7.90;;;-1.80;99.90;;;;;;9665185;23;20336;-88
2023/12/04 00:42:49;;;;;;;15.30;8.40;;;-1.80;99.90;;;;;;9666924;23;20155;-89
2023/12/04 00:46:35;;;;;;;17.13;8.90;;;-1.80;99.90;;;;;;9666562;23;20180;-89
2023/12/04 00:50:20;;;;;;;17.93;9.17;;;-1.80;99.90;;;;;;9665465;23;20161;-89
2023/12/04 00:54:06;;;;;;;17.87;9.80;;;-1.90;99.90;;;;;;9664059;23;20547;-89
2023/12/04 00:57:52;;;;;;;20.83;10.33;;;-1.90;99.90;;;;;;9663774;23;20192;-89
2023/12/04 01:01:38;;;;;;;21.13;10.07;;;-1.90;99.90;;;;;;9664308;23;20647;-89
2023/12/04 01:05:23;;;;;;;20.77;9.77;;;-1.90;99.90;;;;;;9663518;23;20175;-89
2023/12/04 01:09:09;;;;;;;25.00;10.07;;;-1.80;99.90;;;;;;9663955;23;20623;-89
2023/12/04 01:12:54;;;;;;;20.50;9.90;;;-1.90;99.90;;;;;;9691376;23;20615;-88
2023/12/04 01:16:40;;;;;;;22.13;10.03;;;-2.00;99.90;;;;;;9689668;23;20186;-90
2023/12/04 01:20:26;;;;;;;20.13;9.97;;;-2.00;99.90;;;;;;9663746;23;20163;-89
2023/12/04 01:24:12;;;;;;;16.40;8.33;;;-2.00;99.90;;;;;;9690278;23;20195;-90
2023/12/04 01:27:57;;;;;;;17.60;8.70;;;-2.00;99.90;;;;;;9663415;23;20699;-89
2023/12/04 01:31:43;;;;;;;21.13;9.70;;;-2.10;99.90;;;;;;9663515;23;20654;-89
2023/12/04 01:35:28;;;;;;;21.60;9.50;;;-2.10;99.90;;;;;;9662971;23;20628;-89
2023/12/04 01:39:14;;;;;;;27.73;10.20;;;-2.10;99.90;;;;;;9663329;23;20602;-89
2023/12/04 01:43:04;;;;;;;20.03;9.97;;;-2.20;99.90;;;;;;9662142;23;20159;-89
2023/12/04 01:46:49;;;;;;;21.07;10.10;;;-2.10;99.90;;;;;;9662934;23;20231;-89
2023/12/04 01:50:36;;;;;;;25.63;11.13;;;-2.10;99.90;;;;;;9663046;23;20212;-89
2023/12/04 01:54:22;;;;;;;26.63;11.30;;;-2.20;99.90;;;;;;9663264;23;20494;-89
2023/12/04 01:58:08;;;;;;;24.90;12.13;;;-2.20;99.90;;;;;;9662993;23;20188;-89
2023/12/04 02:01:55;;;;;;;24.53;11.23;;;-2.20;99.90;;;;;;9663376;23;20283;-89
2023/12/04 02:05:43;;;;;;;27.70;12.33;;;-2.20;99.90;;;;;;9662891;23;20520;-89
2023/12/04 02:09:30;;;;;;;27.53;11.97;;;-2.30;99.90;;;;;;9662950;23;20217;-90
2023/12/04 02:13:16;;;;;;;26.10;12.17;;;-2.30;99.90;;;;;;9689791;23;20158;-89
2023/12/04 02:17:05;;;;;;;24.20;11.40;;;-2.30;99.90;;;;;;9662615;23;20192;-89
2023/12/04 02:20:51;;;;;;;25.47;11.93;;;-2.30;99.90;;;;;;9662511;23;20215;-89
2023/12/04 02:24:36;;;;;;;26.30;11.93;;;-2.30;99.90;;;;;;9662355;23;20162;-89
2023/12/04 02:28:23;;;;;;;23.80;11.90;;;-2.40;99.90;;;;;;9662066;23;20187;-90
2023/12/04 02:32:11;;;;;;;25.33;11.47;;;-2.30;99.90;;;;;;9662457;23;20176;-90
2023/12/04 02:35:59;;;;;;;26.93;11.83;;;-2.40;99.90;;;;;;9689116;23;20518;-89
2023/12/04 02:39:45;;;;;;;25.50;11.30;;;-2.40;99.90;;;;;;9662773;23;20157;-90
2023/12/04 02:43:30;;;;;;;22.70;10.90;;;-2.50;99.90;;;;;;9662642;23;20159;-90
2023/12/04 02:47:16;;;;;;;26.33;11.27;;;-2.50;99.90;;;;;;9662212;23;20220;-89
2023/12/04 02:51:03;;;;;;;27.37;12.97;;;-2.60;99.90;;;;;;9662179;23;20157;-89
2023/12/04 02:55:00;;;;;;;28.40;12.17;;;-2.60;99.90;;;;;;9688844;23;20228;-90
2023/12/04 02:58:46;;;;;;;26.63;11.70;;;-2.60;99.90;;;;;;9662158;23;20181;-89
2023/12/04 03:02:31;;;;;;;26.03;11.33;;;-2.60;99.90;;;;;;9662909;23;20184;-89
2023/12/04 03:06:17;;;;;;;29.63;12.93;;;-2.60;99.90;;;;;;9661959;23;20179;-89
2023/12/04 03:10:03;;;;;;;29.83;13.03;;;-2.60;99.90;;;;;;9662280;23;20491;-89
2023/12/04 03:13:48;;;;;;;29.07;12.67;;;-2.60;99.90;;;;;;9662062;23;20164;-89
2023/12/04 03:17:34;;;;;;;24.20;11.60;;;-2.70;99.90;;;;;;9662218;23;20835;-89
2023/12/04 03:21:20;;;;;;;25.83;11.93;;;-2.70;99.90;;;;;;9662147;23;20660;-90
2023/12/04 03:25:06;;;;;;;26.53;12.97;;;-2.80;99.90;;;;;;9662264;23;20152;-89
2023/12/04 03:28:51;;;;;;;26.00;10.90;;;-2.80;99.90;;;;;;9662094;23;20173;-89
2023/12/04 03:32:37;;;;;;;23.80;11.47;;;-2.80;99.90;;;;;;9662734;23;20158;-90
2023/12/04 03:36:23;;;;;;;26.20;11.93;;;-2.70;99.90;;;;;;9661751;23;20193;-90
2023/12/04 03:40:09;;;;;;;27.87;11.70;;;-2.70;99.90;;;;;;9662896;23;20164;-89
2023/12/04 03:43:54;;;;;;;26.30;12.53;;;-2.60;99.90;;;;;;9664474;23;20156;-90
2023/12/04 03:47:40;;;;;;;33.53;13.87;;;-2.60;99.90;;;;;;9691858;23;20656;-90
2023/12/04 03:51:25;;;;;;;35.30;16.47;;;-2.60;99.90;;;;;;9664860;23;20169;-89
2023/12/04 03:55:11;;;;;;;30.03;13.23;;;-2.60;99.90;;;;;;9691899;23;20157;-90
2023/12/04 03:58:57;;;;;;;26.30;12.23;;;-2.50;99.90;;;;;;9665384;23;20193;-89
2023/12/04 04:02:45;;;;;;;26.70;12.13;;;-2.60;99.90;;;;;;9664968;23;20163;-90
2023/12/04 04:06:30;;;;;;;25.27;12.60;;;-2.60;99.90;;;;;;9664476;23;20186;-90
2023/12/04 04:10:16;;;;;;;25.87;11.10;;;-2.60;99.90;;;;;;9664745;23;20171;-91
2023/12/04 04:14:02;;;;;;;24.23;11.03;;;-2.60;99.90;;;;;;9665113;23;20160;-90
2023/12/04 04:17:47;;;;;;;25.10;11.90;;;-2.60;99.90;;;;;;9664503;23;20222;-89
2023/12/04 04:21:34;;;;;;;21.13;10.43;;;-2.60;99.90;;;;;;9690907;23;20153;-88
2023/12/04 04:25:21;;;;;;;22.50;11.10;;;-2.60;99.90;;;;;;9663838;23;20174;-89
2023/12/04 04:29:07;;;;;;;24.70;11.27;;;-2.60;99.90;;;;;;9663875;23;20181;-90
2023/12/04 04:32:53;;;;;;;29.70;12.67;;;-2.60;99.90;;;;;;9662570;23;20151;-90
2023/12/04 04:36:38;;;;;;;29.50;12.07;;;-2.70;99.90;;;;;;9690773;23;20177;-90
2023/12/04 04:40:24;;;;;;;27.60;11.63;;;-2.70;99.90;;;;;;9663525;23;20700;-89
2023/12/04 04:44:10;;;;;;;21.67;10.63;;;-2.70;99.90;;;;;;9661550;23;20163;-89
2023/12/04 04:47:55;;;;;;;24.27;11.67;;;-2.80;99.90;;;;;;9659989;23;20188;-89
2023/12/04 04:51:41;;;;;;;25.90;11.20;;;-2.80;99.90;;;;;;9661266;23;20195;-90
2023/12/04 04:55:26;;;;;;;23.20;10.73;;;-2.90;99.90;;;;;;9663047;23;20189;-88
2023/12/04 04:59:20;;;;;;;23.70;10.73;;;-3.00;99.90;;;;;;9662273;23;20196;-89
2023/12/04 05:03:06;;;;;;;25.07;11.00;;;-3.00;99.90;;;;;;9663512;23;20151;-89
2023/12/04 05:07:04;;;;;;;22.67;10.33;;;-3.00;99.90;;;;;;9663357;23;20267;-90
2023/12/04 05:10:50;;;;;;;24.83;10.90;;;-3.10;99.90;;;;;;9663945;23;20159;-89
2023/12/04 05:14:35;;;;;;;23.43;10.47;;;-3.10;99.90;;;;;;9672204;23;20213;-90
2023/12/04 05:18:28;;;;;;;20.63;10.10;;;-3.20;99.90;;;;;;9734168;22;20189;-90
2023/12/04 05:22:17;;;;;;;23.87;10.43;;;-3.20;99.90;;;;;;9710540;22;20142;-90
2023/12/04 05:26:03;;;;;;;21.97;9.77;;;-3.20;99.90;;;;;;9712737;22;20165;-89
2023/12/04 05:29:48;;;;;;;21.77;10.40;;;-3.20;99.90;;;;;;9673240;23;20254;-89
2023/12/04 05:33:34;;;;;;;24.37;10.57;;;-3.20;99.90;;;;;;9665779;23;20188;-90
2023/12/04 05:37:42;;;;;;;24.77;10.33;;;-3.30;99.90;;;;;;9664210;23;20184;-90
2023/12/04 05:41:28;;;;;;;24.13;10.83;;;-3.30;99.90;;;;;;9664076;23;20689;-90
2023/12/04 05:45:13;;;;;;;23.20;10.17;;;-3.30;99.90;;;;;;9664063;23;20487;-90
2023/12/04 05:49:29;;;;;;;24.43;10.73;;;-3.30;99.90;;;;;;9663616;23;20165;-90
2023/12/04 05:53:14;;;;;;;22.70;10.13;;;-3.30;99.90;;;;;;9663066;23;20577;-89
2023/12/04 05:57:00;;;;;;;20.70;9.43;;;-3.40;99.90;;;;;;9663191;23;20593;-89
2023/12/04 06:01:13;;;;;;;23.30;10.60;;;-3.40;99.90;;;;;;9663646;23;20191;-90
2023/12/04 06:04:59;;;;;;;21.60;9.67;;;-3.40;99.90;;;;;;9662995;23;20700;-90
2023/12/04 06:08:45;;;;;;;24.37;10.17;;;-3.50;99.90;;;;;;9690078;23;20154;-90
2023/12/04 06:12:34;;;;;;;22.23;10.00;;;-3.50;99.90;;;;;;9663782;23;20250;-89
2023/12/04 06:16:19;;;;;;;23.00;10.17;;;-3.50;99.90;;;;;;9663986;23;20189;-87
2023/12/04 06:20:06;;;;;;;22.33;9.33;;;-3.50;99.90;;;;;;9689935;23;20180;-91
2023/12/04 06:23:52;;;;;;;20.50;9.60;;;-3.50;99.90;;;;;;9662291;23;20160;-89
2023/12/04 06:27:38;;;;;;;23.17;9.97;;;-3.50;99.90;;;;;;9662597;23;20208;-89
2023/12/04 06:31:24;;;;;;;21.90;9.57;;;-3.50;99.90;;;;;;9663035;23;20173;-89
2023/12/04 06:35:10;;;;;;;26.30;9.37;;;-3.50;99.90;;;;;;9662682;23;20157;-89
2023/12/04 06:38:58;;;;;;;22.33;9.87;;;-3.50;99.90;;;;;;9662618;23;20217;-89
2023/12/04 06:42:44;;;;;;;23.80;9.80;;;-3.50;99.90;;;;;;9663024;23;20494;-89
2023/12/04 06:46:31;;;;;;;22.47;10.00;;;-3.50;99.90;;;;;;9663171;23;20204;-88
2023/12/04 06:50:16;;;;;;;23.97;9.70;;;-3.50;99.90;;;;;;9663322;23;20168;-89
2023/12/04 06:54:02;;;;;;;19.70;9.73;;;-3.50;99.90;;;;;;9688869;23;20665;-90
2023/12/04 06:57:48;;;;;;;25.13;10.43;;;-3.60;99.90;;;;;;9661601;23;20189;-89
2023/12/04 07:01:34;;;;;;;22.33;9.70;;;-3.60;99.90;;;;;;9662195;23;20153;-90
2023/12/04 07:05:21;;;;;;;21.23;10.10;;;-3.60;99.90;;;;;;9662235;23;20173;-90
2023/12/04 07:09:10;;;;;;;23.13;10.17;;;-3.70;99.90;;;;;;9662140;23;20146;-90
2023/12/04 07:12:55;;;;;;;20.60;9.53;;;-3.70;99.90;;;;;;9661435;23;20511;-90
2023/12/04 07:16:42;;;;;;;22.73;10.10;;;-3.60;99.90;;;;;;9661723;23;20211;-90
2023/12/04 07:20:27;;;;;;;20.90;9.67;;;-3.60;99.90;;;;;;9662233;23;20161;-89
2023/12/04 07:24:13;;;;;;;22.93;9.60;;;-3.60;99.90;;;;;;9662320;23;20211;-89
2023/12/04 07:28:15;;;;;;;20.33;8.87;;;-3.60;99.90;;;;;;9662289;23;20184;-89
2023/12/04 07:32:01;;;;;;;19.97;9.30;;;-3.60;99.90;;;;;;9662008;23;20215;-90
2023/12/04 07:35:46;;;;;;;18.97;9.47;;;-3.60;99.90;;;;;;9661289;23;20191;-91
2023/12/04 07:39:32;;;;;;;21.50;10.07;;;-3.60;99.90;;;;;;9662279;23;20157;-90
2023/12/04 07:43:18;;;;;;;21.37;9.53;;;-3.60;99.90;;;;;;9662198;23;20153;-90
2023/12/04 07:47:03;;;;;;;19.77;8.40;;;-3.60;99.90;;;;;;9662254;23;20177;-90
2023/12/04 07:50:49;;;;;;;19.13;8.70;;;-3.60;99.90;;;;;;9662185;23;20157;-90
2023/12/04 07:54:35;;;;;;;23.03;9.07;;;-3.60;99.90;;;;;;9662421;23;20245;-90
2023/12/04 07:58:21;;;;;;;20.57;9.03;;;-3.60;99.90;;;;;;9661997;23;20244;-89
2023/12/04 08:02:06;;;;;;;19.53;8.80;;;-3.60;99.90;;;;;;9688855;23;20149;-90
2023/12/04 08:05:52;;;;;;;19.00;8.30;;;-3.60;99.90;;;;;;9661295;23;20263;-90
2023/12/04 08:09:38;;;;;;;16.77;8.93;;;-3.60;99.90;;;;;;9662052;23;20181;-90
2023/12/04 08:13:24;;;;;;;19.40;8.47;;;-3.60;99.90;;;;;;9661881;23;20185;-91
2023/12/04 08:17:10;;;;;;;18.10;9.40;;;-3.60;99.90;;;;;;9662500;23;20200;-90
2023/12/04 08:20:55;;;;;;;15.17;8.17;;;-3.60;99.90;;;;;;9662591;23;20574;-91
2023/12/04 08:24:41;;;;;;;18.30;9.07;;;-3.50;99.90;;;;;;9662712;23;20157;-90
2023/12/04 08:28:27;;;;;;;22.47;9.70;;;-3.50;99.90;;;;;;9664848;23;20181;-91
2023/12/04 08:32:13;;;;;;;19.43;9.13;;;-3.50;99.90;;;;;;9664226;23;20177;-91
2023/12/04 08:35:58;;;;;;;20.20;9.83;;;-3.50;99.90;;;;;;9663403;23;20188;-90
2023/12/04 08:39:44;;;;;;;19.67;8.93;;;-3.40;99.90;;;;;;9663180;23;20164;-90
2023/12/04 08:43:30;;;;;;;17.17;8.77;;;-3.40;99.90;;;;;;9663401;23;20502;-90
2023/12/04 08:47:35;;;;;;;21.13;8.80;;;-3.40;99.90;;;;;;9662536;23;20181;-90
2023/12/04 08:51:20;;;;;;;16.97;8.43;;;-3.40;99.90;;;;;;9662337;23;20158;-90
2023/12/04 08:55:07;;;;;;;19.53;8.83;;;-3.40;99.90;;;;;;9663245;23;20700;-90
2023/12/04 08:58:52;;;;;;;20.17;8.67;;;-3.40;99.90;;;;;;9664013;23;20185;-89
2023/12/04 09:02:38;;;;;;;23.27;9.73;;;-3.40;99.90;;;;;;9664229;23;20244;-90
2023/12/04 09:06:36;;;;;;;22.37;9.13;;;-3.30;99.90;;;;;;9664869;23;20177;-90
2023/12/04 09:10:21;;;;;;;19.87;9.63;;;-3.30;99.90;;;;;;9690808;23;20141;-90
2023/12/04 09:14:09;;;;;;;19.03;9.63;;;-3.30;99.90;;;;;;9663739;23;20193;-90
2023/12/04 09:17:58;;;;;;;20.30;9.00;;;-3.30;99.90;;;;;;9663527;23;20856;-90
2023/12/04 09:21:44;;;;;;;17.00;8.53;;;-3.30;99.90;;;;;;9663949;23;20651;-90
2023/12/04 09:25:29;;;;;;;19.00;9.33;;;-3.20;99.90;;;;;;9663845;23;20204;-89
2023/12/04 09:29:16;;;;;;;25.00;9.07;;;-3.20;99.90;;;;;;9663752;23;20180;-90
2023/12/04 09:33:02;;;;;;;19.73;9.07;;;-3.20;99.90;;;;;;9664442;23;20191;-90
2023/12/04 09:36:48;;;;;;;22.07;9.70;;;-3.20;99.90;;;;;;9663057;23;20193;-90
2023/12/04 09:40:38;;;;;;;20.23;9.57;;;-3.00;99.90;;;;;;9663535;23;20153;-90
2023/12/04 09:44:27;;;;;;;23.90;9.73;;;-3.00;99.90;;;;;;9663040;23;20519;-90
2023/12/04 09:48:12;;;;;;;21.67;10.20;;;-3.00;99.90;;;;;;9663596;23;20258;-89
2023/12/04 09:52:00;;;;;;;21.97;9.90;;;-2.90;99.90;;;;;;9663643;23;20164;-88
2023/12/04 09:55:49;;;;;;;20.83;10.07;;;-2.90;99.90;;;;;;9663126;23;20238;-90
2023/12/04 09:59:36;;;;;;;21.50;9.63;;;-2.90;99.90;;;;;;9663287;23;20159;-89
2023/12/04 10:03:22;;;;;;;18.93;9.07;;;-2.80;99.90;;;;;;9662722;23;20566;-89
2023/12/04 10:07:08;;;;;;;17.73;9.07;;;-2.80;99.90;;;;;;9663390;23;20203;-89
2023/12/04 10:10:53;;;;;;;20.83;9.70;;;-2.80;99.90;;;;;;9663778;23;20166;-89
2023/12/04 10:14:39;;;;;;;20.17;9.67;;;-2.80;99.90;;;;;;9663533;23;20165;-90
2023/12/04 10:18:30;;;;;;;19.53;9.07;;;-2.70;99.90;;;;;;9663081;23;20199;-90
2023/12/04 10:22:15;;;;;;;23.10;10.00;;;-2.70;99.90;;;;;;9663357;23;20498;-90
2023/12/04 10:26:02;;;;;;;22.97;9.87;;;-2.70;99.90;;;;;;9663044;23;20204;-89
2023/12/04 10:29:50;;;;;;;20.13;9.17;;;-2.70;99.90;;;;;;9663381;23;20190;-89
2023/12/04 10:33:36;;;;;;;22.97;9.60;;;-2.70;99.90;;;;;;9667429;23;20192;-89
2023/12/04 10:37:22;;;;;;;24.23;10.17;;;-2.70;99.90;;;;;;9666416;23;20188;-90
2023/12/04 10:41:14;;;;;;;17.33;9.00;;;-2.70;99.90;;;;;;9662472;23;20555;-89
2023/12/04 10:45:07;;;;;;;21.87;10.20;;;-2.70;99.90;;;;;;9687906;23;20157;-89
2023/12/04 10:48:54;;;;;;;23.13;9.70;;;-2.70;99.90;;;;;;9661861;23;20148;-90
2023/12/04 10:52:41;;;;;;;23.50;9.93;;;-2.60;99.90;;;;;;9662550;23;20656;-89
2023/12/04 10:56:40;;;;;;;19.00;9.73;;;-2.60;99.90;;;;;;9662174;23;20193;-89
2023/12/04 11:00:27;;;;;;;19.83;9.77;;;-2.60;99.90;;;;;;9662559;23;20488;-90
2023/12/04 11:04:18;;;;;;;21.53;10.10;;;-2.70;99.90;;;;;;9662359;23;20554;-89
2023/12/04 11:08:07;;;;;;;20.77;10.37;;;-2.60;99.90;;;;;;9662484;23;20177;-90
2023/12/04 11:11:59;;;;;;;21.93;10.10;;;-2.60;99.90;;;;;;9662354;23;20159;-90
2023/12/04 11:15:50;;;;;;;19.83;9.63;;;-2.60;99.90;;;;;;9662479;23;20208;-90
2023/12/04 11:19:46;;;;;;;21.97;9.93;;;-2.60;99.90;;;;;;9662532;23;20231;-90
2023/12/04 11:23:33;;;;;;;20.70;9.83;;;-2.50;99.90;;;;;;9662451;23;20159;-89
2023/12/04 11:27:19;;;;;;;23.03;9.93;;;-2.50;99.90;;;;;;9662290;23;20586;-89
2023/12/04 11:31:06;;;;;;;20.83;9.67;;;-2.50;99.90;;;;;;9662267;23;20184;-89
2023/12/04 11:34:55;;;;;;;25.03;10.60;;;-2.40;99.90;;;;;;9662431;23;20157;-88
2023/12/04 11:38:46;;;;;;;21.93;10.13;;;-2.50;99.90;;;;;;9662412;23;20251;-90
2023/12/04 11:42:39;;;;;;;22.43;10.23;;;-2.40;99.90;;;;;;9663473;23;20162;-90
2023/12/04 11:46:26;;;;;;;22.10;10.27;;;-2.40;99.90;;;;;;9700149;22;20172;-89
2023/12/04 11:50:12;;;;;;;22.90;10.33;;;-2.40;99.90;;;;;;9703656;22;20184;-90
2023/12/04 11:53:59;;;;;;;21.77;10.67;;;-2.40;99.90;;;;;;9709364;22;20169;-90
2023/12/04 11:57:45;;;;;;;21.13;10.33;;;-2.40;99.90;;;;;;9675976;23;20189;-89
2023/12/04 12:01:37;;;;;;;21.30;10.00;;;-2.40;99.90;;;;;;9691705;23;20152;-89
2023/12/04 12:05:25;;;;;;;25.83;10.27;;;-2.50;99.90;;;;;;9665208;23;20184;-89
2023/12/04 12:09:11;;;;;;;22.93;9.63;;;-2.40;99.90;;;;;;9665070;23;20157;-89
2023/12/04 12:12:59;;;;;;;23.03;10.83;;;-2.40;99.90;;;;;;9665124;23;20208;-89
2023/12/04 12:16:45;;;;;;;21.83;10.43;;;-2.50;99.90;;;;;;9667203;23;20267;-90
2023/12/04 12:20:32;;;;;;;24.17;11.27;;;-2.30;99.90;;;;;;9665012;23;20158;-90
2023/12/04 12:24:18;;;;;;;21.70;10.50;;;-2.40;99.90;;;;;;9664708;23;20158;-90
2023/12/04 12:28:07;;;;;;;23.20;10.27;;;-2.40;99.90;;;;;;9691562;23;20625;-89
2023/12/04 12:31:53;;;;;;;21.13;9.83;;;-2.40;99.90;;;;;;9691470;23;20173;-90
2023/12/04 12:35:39;;;;;;;22.57;10.93;;;-2.40;99.90;;;;;;9664437;23;20185;-90
2023/12/04 12:39:31;;;;;;;23.07;10.57;;;-2.30;99.90;;;;;;9664481;23;20239;-89
2023/12/04 12:43:21;;;;;;;23.07;10.43;;;-2.30;99.90;;;;;;9664712;23;20149;-89
2023/12/04 12:47:18;;;;;;;20.93;10.20;;;-2.30;99.90;;;;;;9664437;23;20639;-89
2023/12/04 12:51:03;;;;;;;26.80;11.33;;;-2.30;99.90;;;;;;9664515;23;20792;-89
2023/12/04 12:54:49;;;;;;;22.90;11.20;;;-2.30;99.90;;;;;;9664641;23;20508;-89
2023/12/04 12:58:35;;;;;;;20.87;10.57;;;-2.20;99.90;;;;;;9664431;23;20239;-89
2023/12/04 13:02:21;;;;;;;26.20;14.18;;;-2.30;99.90;;;;;;9663673;23;20372;-89
2023/12/04 13:06:09;;;;;;;26.20;11.97;;;-2.10;99.90;;;;;;9663907;23;20180;-89
2023/12/04 13:09:55;;;;;;;25.77;10.73;;;-2.20;99.90;;;;;;9689727;23;20243;-89
2023/12/04 13:13:41;;;;;;;25.20;11.90;;;-2.20;99.90;;;;;;9664332;23;20161;-89
2023/12/04 13:17:26;;;;;;;21.10;10.30;;;-2.10;99.90;;;;;;9664082;23;20188;-90
2023/12/04 13:21:12;;;;;;;20.67;10.40;;;-2.20;99.90;;;;;;9664409;23;20608;-90
2023/12/04 13:24:58;;;;;;;22.30;10.33;;;-2.20;99.90;;;;;;9664705;23;20157;-89
2023/12/04 13:28:43;;;;;;;20.63;10.33;;;-2.20;99.90;;;;;;9664678;23;20605;-91
2023/12/04 13:32:29;;;;;;;20.07;10.80;;;-2.10;99.90;;;;;;9664249;23;20651;-90
2023/12/04 13:36:14;;;;;;;22.07;10.83;;;-2.20;99.90;;;;;;9664198;23;20221;-89
2023/12/04 13:40:06;;;;;;;25.23;11.53;;;-2.20;99.90;;;;;;9690781;23;20667;-89
2023/12/04 13:43:52;;;;;;;23.00;10.17;;;-2.10;99.90;;;;;;9663806;23;20188;-89
2023/12/04 13:47:40;;;;;;;21.53;10.67;;;-2.20;99.90;;;;;;9664054;23;20192;-90
2023/12/04 13:51:26;;;;;;;22.00;11.10;;;-2.20;99.90;;;;;;9666916;23;20160;-91
2023/12/04 13:55:19;;;;;;;23.43;11.43;;;-2.20;99.90;;;;;;9669781;23;20161;-89
2023/12/04 13:59:07;;;;;;;23.37;10.90;;;-2.20;99.90;;;;;;9671261;23;20177;-90
2023/12/04 14:02:53;;;;;;;24.03;10.47;;;-2.20;99.90;;;;;;9665166;23;20203;-89
2023/12/04 14:06:39;;;;;;;20.27;10.60;;;-2.30;99.90;;;;;;9663245;23;20208;-90
2023/12/04 14:10:26;;;;;;;22.43;10.77;;;-2.30;99.90;;;;;;9663863;23;20219;-89
2023/12/04 14:14:13;;;;;;;23.20;10.60;;;-2.30;99.90;;;;;;9663869;23;20503;-90
2023/12/04 14:17:58;;;;;;;23.43;11.50;;;-2.30;99.90;;;;;;9662721;23;20189;-89
2023/12/04 14:21:44;;;;;;;24.13;11.50;;;-2.30;99.90;;;;;;9662736;23;20182;-89
2023/12/04 14:25:29;;;;;;;23.67;11.30;;;-2.30;99.90;;;;;;9663479;23;20184;-89
2023/12/04 14:29:15;;;;;;;23.13;11.47;;;-2.20;99.90;;;;;;9662846;23;20288;-90
2023/12/04 14:33:01;;;;;;;22.27;11.20;;;-2.20;99.90;;;;;;9662659;23;20679;-89
2023/12/04 14:36:46;;;;;;;22.17;10.77;;;-2.30;99.90;;;;;;9662471;23;20208;-89
2023/12/04 14:40:32;;;;;;;22.57;11.13;;;-2.30;99.90;;;;;;9663431;23;20211;-89
2023/12/04 14:44:24;;;;;;;26.07;11.37;;;-2.30;99.90;;;;;;9663425;23;20689;-89
2023/12/04 14:48:10;;;;;;;22.93;10.37;;;-2.30;99.90;;;;;;9662418;23;20182;-88
2023/12/04 14:52:00;;;;;;;21.43;10.77;;;-2.30;99.90;;;;;;9662930;23;20160;-89
2023/12/04 15:23:55;;;;;;;22.73;13.25;;;-2.30;99.90;;;;;;9703505;23;20455;-87
2023/12/04 15:27:41;;;;;;;20.40;10.67;;;-2.30;99.90;;;;;;9661436;23;20756;-90
2023/12/04 15:31:27;;;;;;;19.53;10.50;;;-2.30;99.90;;;;;;9661608;23;20178;-89
2023/12/04 15:35:14;;;;;;;22.00;10.20;;;-2.30;99.90;;;;;;9662674;23;20165;-89
2023/12/04 15:38:59;;;;;;;22.87;10.13;;;-2.30;99.90;;;;;;9666074;23;20183;-90
2023/12/04 15:42:48;;;;;;;21.20;10.00;;;-2.20;99.90;;;;;;9667341;23;20161;-89
2023/12/04 15:46:33;;;;;;;20.30;10.07;;;-2.30;99.90;;;;;;9665046;23;20185;-88
2023/12/04 15:50:24;;;;;;;17.80;9.20;;;-2.30;99.90;;;;;;9664850;23;20161;-89
2023/12/04 15:54:10;;;;;;;18.40;9.50;;;-2.30;99.90;;;;;;9665528;23;20154;-90
2023/12/04 15:57:58;;;;;;;19.83;9.83;;;-2.30;99.90;;;;;;9663925;23;20272;-89
2023/12/04 16:01:44;;;;;;;21.83;9.80;;;-2.30;99.90;;;;;;9662103;23;20157;-89
2023/12/04 16:05:30;;;;;;;22.90;9.83;;;-2.30;99.90;;;;;;9663673;23;20181;-89
2023/12/04 16:09:16;;;;;;;21.23;9.53;;;-2.30;99.90;;;;;;9662672;23;20212;-89
2023/12/04 16:13:02;;;;;;;22.10;10.33;;;-2.30;99.90;;;;;;9663537;23;20167;-88
2023/12/04 16:16:47;;;;;;;20.97;9.87;;;-2.20;99.90;;;;;;9663228;23;20189;-89
2023/12/04 16:20:33;;;;;;;20.60;9.80;;;-2.30;99.90;;;;;;9664214;23;20675;-87
2023/12/04 16:24:21;;;;;;;21.93;10.37;;;-2.30;99.90;;;;;;9663731;23;20160;-88
2023/12/04 16:28:10;;;;;;;23.17;10.70;;;-2.40;99.90;;;;;;9663477;23;20183;-88
2023/12/04 16:31:56;;;;;;;19.73;9.90;;;-2.40;99.90;;;;;;9665129;23;20177;-89
2023/12/04 16:35:42;;;;;;;22.37;11.27;;;-2.40;99.90;;;;;;9690891;23;20177;-89
2023/12/04 16:39:34;;;;;;;22.00;10.50;;;-2.40;99.90;;;;;;9664177;23;20450;-90
2023/12/04 16:43:20;;;;;;;24.00;11.17;;;-2.40;99.90;;;;;;9664423;23;20252;-89
2023/12/04 16:47:07;;;;;;;23.03;11.80;;;-2.40;99.90;;;;;;9663301;23;20177;-90
2023/12/04 16:50:52;;;;;;;25.07;11.00;;;-2.30;99.90;;;;;;9663010;23;20161;-89
2023/12/04 16:54:38;;;;;;;22.70;10.83;;;-2.30;99.90;;;;;;9663456;23;20168;-89
2023/12/04 16:58:25;;;;;;;25.40;12.13;;;-2.30;99.90;;;;;;9663589;23;20194;-89
2023/12/04 17:02:17;;;;;;;28.07;12.67;;;-2.20;99.90;;;;;;9663878;23;20184;-91
2023/12/04 17:06:05;;;;;;;21.57;10.50;;;-2.20;99.90;;;;;;9653564;23;20185;-90
2023/12/04 17:09:51;;;;;;;25.43;12.33;;;-2.20;99.90;;;;;;9639369;23;20241;-90
2023/12/04 17:13:38;;;;;;;24.93;11.17;;;-2.20;99.90;;;;;;9663735;22;20180;-90
2023/12/04 17:17:24;;;;;;;29.63;12.87;;;-2.20;99.90;;;;;;9663415;23;20671;-90
2023/12/04 17:21:13;;;;;;;21.60;10.10;;;-2.20;99.90;;;;;;9665991;23;20515;-90
2023/12/04 17:25:19;;;;;;;24.60;11.33;;;-2.10;99.90;;;;;;9665683;23;20185;-91
2023/12/04 17:29:05;;;;;;;27.77;12.03;;;-2.20;99.90;;;;;;9665434;23;20589;-90
2023/12/04 17:32:56;;;;;;;24.73;12.53;;;-2.20;99.90;;;;;;9663674;23;20537;-90
2023/12/04 17:36:47;;;;;;;26.93;12.93;;;-2.20;99.90;;;;;;9663844;23;20192;-90
2023/12/04 17:40:35;;;;;;;24.00;11.50;;;-2.10;99.90;;;;;;9664774;23;20153;-89
2023/12/04 17:44:21;;;;;;;27.47;13.37;;;-2.10;99.90;;;;;;9664426;23;20158;-90
2023/12/04 17:48:07;;;;;;;23.27;12.10;;;-2.20;99.90;;;;;;9672623;23;20204;-89
2023/12/04 17:51:53;;;;;;;23.97;12.17;;;-2.20;99.90;;;;;;9706382;22;20155;-90
2023/12/04 17:55:46;;;;;;;24.53;11.70;;;-2.10;99.90;;;;;;9708891;22;20165;-90
2023/12/04 18:00:24;;;;;;;22.60;11.10;;;-2.10;99.90;;;;;;9708609;22;20208;-90
2023/12/04 18:04:42;;;;;;;23.10;11.73;;;-2.20;99.90;;;;;;9668186;23;20302;-90
2023/12/04 18:08:45;;;;;;;24.90;11.50;;;-2.20;99.90;;;;;;9661073;22;20181;-89
2023/12/04 18:12:37;;;;;;;21.80;10.97;;;-2.10;99.90;;;;;;9663562;23;20159;-89
2023/12/04 18:16:23;;;;;;;24.70;11.50;;;-2.20;99.90;;;;;;9662263;23;20188;-89
2023/12/04 18:20:15;;;;;;;25.67;11.90;;;-2.00;99.90;;;;;;9663873;23;20573;-89
2023/12/04 18:24:04;;;;;;;28.53;13.23;;;-2.10;99.90;;;;;;9662323;23;20149;-90
2023/12/04 18:27:50;;;;;;;25.87;12.57;;;-2.20;99.90;;;;;;9663097;23;20205;-89
2023/12/04 18:31:36;;;;;;;24.43;12.33;;;-2.20;99.90;;;;;;9662914;23;20576;-89
2023/12/04 18:35:24;;;;;;;25.07;13.20;;;-2.10;99.90;;;;;;9662686;23;20177;-89
2023/12/04 18:39:19;;;;;;;24.47;11.87;;;-2.20;99.90;;;;;;9663193;23;20184;-89
2023/12/04 18:43:09;;;;;;;23.83;12.40;;;-2.10;99.90;;;;;;9662158;23;20181;-89
2023/12/04 18:46:56;;;;;;;27.10;12.03;;;-2.20;99.90;;;;;;9662333;23;20649;-89
2023/12/04 18:50:44;;;;;;;25.93;11.67;;;-2.20;99.90;;;;;;9662836;23;20212;-88
2023/12/04 18:54:31;;;;;;;27.27;12.10;;;-2.20;99.90;;;;;;9662622;23;20153;-88
2023/12/04 18:58:16;;;;;;;23.30;11.77;;;-2.20;99.90;;;;;;9660294;23;20241;-88
2023/12/04 19:02:12;;;;;;;23.67;12.07;;;-2.10;99.90;;;;;;9690272;23;20153;-89
2023/12/04 19:06:00;;;;;;;27.57;12.43;;;-2.20;99.90;;;;;;9663069;23;20185;-88
2023/12/04 19:09:46;;;;;;;23.37;12.30;;;-2.20;99.90;;;;;;9661686;23;20183;-89
2023/12/04 19:13:31;;;;;;;24.73;12.17;;;-2.20;99.90;;;;;;9662286;23;20467;-89
2023/12/04 19:17:17;;;;;;;25.53;12.43;;;-2.20;99.90;;;;;;9662371;23;20512;-89
2023/12/04 19:21:04;;;;;;;25.87;13.23;;;-2.00;99.90;;;;;;9691463;23;20152;-89
2023/12/04 19:24:49;;;;;;;26.00;12.93;;;-2.10;99.90;;;;;;9663491;23;20236;-88
2023/12/04 19:28:36;;;;;;;25.97;13.03;;;-2.10;99.90;;;;;;9690180;23;20234;-89
2023/12/04 19:32:23;;;;;;;23.00;11.97;;;-2.10;99.90;;;;;;9661635;23;20170;-89
2023/12/04 19:36:09;;;;;;;23.00;12.20;;;-2.20;99.90;;;;;;9687755;23;20515;-89
2023/12/04 19:39:55;;;;;;;23.27;12.57;;;-2.10;99.90;;;;;;9662214;23;20153;-89
2023/12/04 19:43:42;;;;;;;25.30;12.87;;;-2.10;99.90;;;;;;9660437;23;20632;-88
2023/12/04 19:47:27;;;;;;;23.83;12.87;;;-2.10;99.90;;;;;;9661876;23;20506;-91